createdAt,value
2022-08-29T00:01:39.338Z,18.88
2022-08-29T00:11:47.303Z,18.85
2022-08-29T00:21:53.652Z,18.82
2022-08-29T00:32:01.144Z,18.77
2022-08-29T00:42:09.527Z,18.74
2022-08-29T00:52:24.130Z,18.68
2022-08-29T01:02:31.386Z,18.63
2022-08-29T01:12:39.087Z,18.63
2022-08-29T01:22:49.289Z,18.62
2022-08-29T01:32:55.820Z,18.60
2022-08-29T01:43:02.763Z,18.59
2022-08-29T01:53:09.864Z,18.58
2022-08-29T02:03:18.779Z,18.57
2022-08-29T02:13:25.894Z,18.58
2022-08-29T02:23:35.144Z,18.55
2022-08-29T02:33:42.583Z,18.56
2022-08-29T02:43:50.092Z,18.53
2022-08-29T02:53:57.447Z,18.42
2022-08-29T03:04:04.813Z,18.33
2022-08-29T03:14:11.765Z,18.29
2022-08-29T03:24:26.177Z,18.20
2022-08-29T03:34:35.280Z,18.14
2022-08-29T03:44:43.722Z,18.03
2022-08-29T03:54:50.698Z,17.93
2022-08-29T04:05:10.167Z,17.88
2022-08-29T04:15:16.802Z,17.84
2022-08-29T04:25:25.196Z,17.77
2022-08-29T04:35:33.333Z,17.71
2022-08-29T04:45:40.634Z,17.65
2022-08-29T04:55:57.052Z,17.66
2022-08-29T05:06:04.306Z,17.68
2022-08-29T05:16:13.708Z,17.80
2022-08-29T05:26:20.936Z,17.88
2022-08-29T05:36:28.035Z,18.02
2022-08-29T05:46:35.318Z,18.14
2022-08-29T05:56:43.146Z,18.23
2022-08-29T06:06:50.864Z,18.27
2022-08-29T06:16:57.175Z,18.35
2022-08-29T06:27:04.898Z,19.06
2022-08-29T06:37:12.264Z,20.10
2022-08-29T06:47:20.032Z,20.97
2022-08-29T06:57:26.260Z,21.80
2022-08-29T07:07:35.898Z,22.67
2022-08-29T07:17:42.622Z,22.72
2022-08-29T07:27:52.236Z,22.52
2022-08-29T07:37:59.076Z,22.20
2022-08-29T07:48:10.105Z,22.63
2022-08-29T07:58:17.502Z,22.59
2022-08-29T08:08:24.854Z,23.10
2022-08-29T08:18:32.652Z,23.05
2022-08-29T08:28:40.680Z,22.64
2022-08-29T08:38:49.016Z,22.67
2022-08-29T08:48:56.756Z,22.86
2022-08-29T08:59:02.691Z,23.14
2022-08-29T09:09:10.310Z,23.25
2022-08-29T09:29:25.913Z,23.36
2022-08-29T09:39:34.165Z,23.52
2022-08-29T09:49:42.424Z,23.65
2022-08-29T09:59:52.336Z,23.59
2022-08-29T10:10:00.421Z,22.94
2022-08-29T10:20:40.851Z,22.45
2022-08-29T10:30:50.943Z,23.00
2022-08-29T10:41:04.639Z,23.23
2022-08-29T10:51:22.502Z,23.59
2022-08-29T11:01:31.081Z,23.21
2022-08-29T11:11:41.506Z,22.75
2022-08-29T11:21:53.838Z,22.72
2022-08-29T11:32:03.670Z,22.54
2022-08-29T11:42:14.617Z,22.99
2022-08-29T11:52:22.879Z,23.18
2022-08-29T12:02:41.142Z,23.06
2022-08-29T12:12:49.344Z,23.16
2022-08-29T12:22:56.647Z,23.06
2022-08-29T12:33:10.375Z,23.01
2022-08-29T12:43:30.153Z,22.96
2022-08-29T12:53:38.283Z,22.66
2022-08-29T13:03:55.460Z,22.57
2022-08-29T13:14:07.468Z,22.52
2022-08-29T13:24:14.643Z,22.57
2022-08-29T13:44:33.181Z,22.54
2022-08-29T13:54:41.059Z,22.40
2022-08-29T14:04:47.049Z,22.30
2022-08-29T14:14:54.297Z,22.15
2022-08-29T14:25:03.084Z,22.01
2022-08-29T14:35:08.075Z,21.91
2022-08-29T14:45:16.426Z,21.84
2022-08-29T14:55:24.088Z,21.80
2022-08-29T15:05:32.127Z,21.72
2022-08-29T15:15:39.349Z,21.59
2022-08-29T15:25:52.103Z,21.43
2022-08-29T15:35:59.469Z,21.43
2022-08-29T15:46:06.578Z,21.41
2022-08-29T15:56:14.597Z,21.33
2022-08-29T16:06:21.678Z,21.25
2022-08-29T16:16:30.394Z,21.24
2022-08-29T16:26:41.599Z,21.06
2022-08-29T16:36:56.097Z,20.78
2022-08-29T16:47:03.302Z,20.60
2022-08-29T16:57:10.713Z,20.28
2022-08-29T17:07:18.371Z,19.98
2022-08-29T17:17:24.374Z,19.68
2022-08-29T17:27:31.363Z,19.47
2022-08-29T17:37:38.669Z,19.31
2022-08-29T17:47:46.080Z,19.09
2022-08-29T17:57:52.543Z,18.76
2022-08-29T18:07:59.774Z,18.32
2022-08-29T18:18:08.582Z,17.92
2022-08-29T18:28:16.063Z,17.66
2022-08-29T18:38:23.548Z,17.49
2022-08-29T18:48:30.857Z,17.39
2022-08-29T18:58:41.530Z,17.21
2022-08-29T19:08:49.073Z,17.07
2022-08-29T19:18:55.448Z,16.95
2022-08-29T19:29:06.623Z,16.84
2022-08-29T19:39:13.783Z,16.75
2022-08-29T19:49:20.910Z,16.54
2022-08-29T19:59:27.944Z,16.49
2022-08-29T20:09:33.766Z,16.40
2022-08-29T20:19:42.548Z,16.34
2022-08-29T20:29:50.237Z,16.23
2022-08-29T20:39:58.810Z,16.08
2022-08-29T20:50:04.842Z,16.01
2022-08-29T21:00:14.570Z,16.02
2022-08-29T21:10:22.271Z,15.87
2022-08-29T21:20:29.667Z,15.56
2022-08-29T21:30:40.445Z,15.37
2022-08-29T21:40:50.814Z,15.39
2022-08-29T21:50:56.211Z,15.33
2022-08-29T22:01:03.680Z,15.14
2022-08-29T22:11:15.556Z,15.03
2022-08-29T22:21:22.918Z,15.04
2022-08-29T22:31:32.063Z,15.19
2022-08-29T22:41:41.309Z,15.18
2022-08-29T22:51:51.241Z,15.06
2022-08-29T23:01:58.348Z,15.00
2022-08-29T23:12:07.119Z,15.04
2022-08-29T23:22:15.640Z,15.11
2022-08-29T23:32:22.945Z,15.08
2022-08-29T23:42:29.642Z,14.97
2022-08-29T23:52:36.787Z,14.79
